createdAt,value
2022-09-26T00:00:05.358Z,2.80
2022-09-26T00:02:31.892Z,2.83
2022-09-26T00:04:58.614Z,2.53
2022-09-26T00:07:25.030Z,2.80
2022-09-26T00:09:51.822Z,2.80
2022-09-26T00:12:18.303Z,3.33
2022-09-26T00:14:44.748Z,3.20
2022-09-26T00:17:11.213Z,4.50
2022-09-26T00:19:37.704Z,4.63
2022-09-26T00:22:04.106Z,3.80
2022-09-26T00:24:31.385Z,5.53
2022-09-26T00:26:57.843Z,5.60
2022-09-26T00:29:24.283Z,3.97
2022-09-26T00:31:50.723Z,4.00
2022-09-26T00:34:18.381Z,4.07
2022-09-26T00:36:45.188Z,3.63
2022-09-26T00:39:13.221Z,3.70
2022-09-26T00:41:39.807Z,3.60
2022-09-26T00:44:24.978Z,3.47
2022-09-26T00:46:51.482Z,3.10
2022-09-26T00:49:26.804Z,3.60
2022-09-26T00:51:57.197Z,3.60
2022-09-26T00:54:24.315Z,2.90
2022-09-26T00:56:51.665Z,3.13
2022-09-26T00:59:23.479Z,3.30
2022-09-26T01:01:51.268Z,3.23
2022-09-26T01:04:17.968Z,3.20
2022-09-26T01:06:45.291Z,3.57
2022-09-26T01:09:14.225Z,3.83
2022-09-26T01:11:41.741Z,3.40
2022-09-26T01:14:09.415Z,3.70
2022-09-26T01:16:37.148Z,3.10
2022-09-26T01:19:06.244Z,3.50
2022-09-26T01:21:51.426Z,3.07
2022-09-26T01:24:33.128Z,3.63
2022-09-26T01:27:10.656Z,3.57
2022-09-26T01:29:52.452Z,3.17
2022-09-26T01:32:49.057Z,3.33
2022-09-26T01:35:18.587Z,3.50
2022-09-26T01:37:49.332Z,3.53
2022-09-26T01:40:27.545Z,3.63
2022-09-26T01:43:00.086Z,3.10
2022-09-26T01:45:28.658Z,3.97
2022-09-26T01:48:05.538Z,3.47
2022-09-26T01:50:34.986Z,3.47
2022-09-26T01:53:01.369Z,3.83
2022-09-26T01:55:29.590Z,4.10
2022-09-26T01:58:05.625Z,4.17
2022-09-26T02:00:33.259Z,4.17
2022-09-26T02:03:00.257Z,4.07
2022-09-26T02:05:33.288Z,3.70
2022-09-26T02:08:02.880Z,3.77
2022-09-26T02:10:32.770Z,3.93
2022-09-26T02:13:02.933Z,3.93
2022-09-26T02:15:30.480Z,4.20
2022-09-26T02:18:01.638Z,4.10
2022-09-26T02:20:32.193Z,4.43
2022-09-26T02:22:59.310Z,3.50
2022-09-26T02:25:26.196Z,3.30
2022-09-26T02:27:52.694Z,3.90
2022-09-26T02:30:19.165Z,3.83
2022-09-26T02:32:45.658Z,3.27
2022-09-26T02:35:35.240Z,3.23
2022-09-26T02:38:02.363Z,3.53
2022-09-26T02:40:35.362Z,4.10
2022-09-26T02:43:07.832Z,2.93
2022-09-26T02:45:34.298Z,3.43
2022-09-26T02:48:19.537Z,2.90
2022-09-26T02:50:58.630Z,2.70
2022-09-26T02:53:54.790Z,2.80
2022-09-26T02:56:27.241Z,2.70
2022-09-26T02:59:02.535Z,2.90
2022-09-26T03:01:40.428Z,2.57
2022-09-26T03:04:26.327Z,3.27
2022-09-26T03:06:54.638Z,2.83
2022-09-26T03:09:22.628Z,3.27
2022-09-26T03:11:49.659Z,2.20
2022-09-26T03:14:16.908Z,2.90
2022-09-26T03:16:44.621Z,2.73
2022-09-26T03:19:14.032Z,2.30
2022-09-26T03:21:40.516Z,2.53
2022-09-26T03:24:06.963Z,2.87
2022-09-26T03:26:34.186Z,3.20
2022-09-26T03:29:00.645Z,3.37
2022-09-26T03:31:27.217Z,4.20
2022-09-26T03:33:53.808Z,4.00
2022-09-26T03:36:23.634Z,4.17
2022-09-26T03:38:50.360Z,4.40
2022-09-26T03:41:16.908Z,4.40
